Time;durP1;ratioP1;P1;durP2;ratioP2;P2;SDS_P1;SDS_P2;PMS_P1;PMS_P2;Temp;Humidity;BMP_temperature;BMP_pressure;BME280_temperature;BME280_humidity;BME280_pressure;Samples;Min_cycle;Max_cycle;Signal;HPM_P1;HPM_P2
2024/02/11 00:00:14;;;;;;;;;;;;;;;;;;5047827;28;19925;-89
2024/02/11 00:02:40;;;;;;;;;;;;;;;;;;5044331;28;19913;-89
2024/02/11 00:05:08;;;;;;;;;;;;;;;;;;5041838;28;19920;-91
2024/02/11 00:07:33;;;;;;;;;;;;;;;;;;5067081;28;19938;-88
2024/02/11 00:09:59;;;;;;;;;;;;;;;;;;5064801;28;19919;-89
2024/02/11 00:12:25;;;;;;;;;;;;;;;;;;5064964;28;19924;-88
2024/02/11 00:14:51;;;;;;;;;;;;;;;;;;5066021;28;19963;-89
2024/02/11 00:17:17;;;;;;;;;;;;;;;;;;5070334;28;20465;-90
2024/02/11 00:19:43;;;;;;;;;;;;;;;;;;5054297;28;20546;-89
2024/02/11 00:22:09;;;;;;;;;;;;;;;;;;5064806;28;19912;-89
2024/02/11 00:24:35;;;;;;;;;;;;;;;;;;5067466;28;19909;-89
2024/02/11 00:27:01;;;;;;;;;;;;;;;;;;5066144;28;20139;-89
2024/02/11 00:29:27;;;;;;;;;;;;;;;;;;5067699;28;20333;-89
2024/02/11 00:31:56;;;;;;;;;;;;;;;;;;5066256;28;19913;-89
2024/02/11 00:34:22;;;;;;;;;;;;;;;;;;5051087;28;19946;-89
2024/02/11 00:36:49;;;;;;;;;;;;;;;;;;5071656;28;19966;-89
2024/02/11 00:39:15;;;;;;;;;;;;;;;;;;5071901;28;20413;-89
2024/02/11 00:41:41;;;;;;;;;;;;;;;;;;5065480;28;19913;-89
2024/02/11 00:44:11;;;;;;;;;;;;;;;;;;5044974;28;19944;-90
2024/02/11 00:46:37;;;;;;;;;;;;;;;;;;5047439;28;19974;-90
2024/02/11 00:49:04;;;;;;;;;;;;;;;;;;5071976;28;19921;-89
2024/02/11 00:51:36;;;;;;;;;;;;;;;;;;5063993;28;20322;-90
2024/02/11 00:54:20;;;;;;;;;;;;;;;;;;5060697;28;19909;-90
2024/02/11 00:56:55;;;;;;;;;;;;;;;;;;5061952;28;19980;-90
2024/02/11 00:59:21;;;;;;;;;;;;;;;;;;5046097;28;20328;-90
2024/02/11 01:01:48;;;;;;;;;;;;;;;;;;5067608;28;19923;-89
2024/02/11 01:04:14;;;;;;;;;;;;;;;;;;5068868;28;19975;-90
2024/02/11 01:06:40;;;;;;;;;;;;;;;;;;5064724;28;20390;-90
2024/02/11 01:09:06;;;;;;;;;;;;;;;;;;5050535;28;19916;-91
2024/02/11 01:11:31;;;;;;;;;;;;;;;;;;5046337;28;19912;-90
2024/02/11 01:13:57;;;;;;;;;;;;;;;;;;5068244;28;19982;-91
2024/02/11 01:16:23;;;;;;;;;;;;;;;;;;5060273;28;21064;-91
2024/02/11 01:18:49;;;;;;;;;;;;;;;;;;5058946;28;20371;-91
2024/02/11 01:21:15;;;;;;;;;;;;;;;;;;5039230;28;19916;-88
2024/02/11 01:23:41;;;;;;;;;;;;;;;;;;5078259;28;19912;-90
2024/02/11 01:26:07;;;;;;;;;;;;;;;;;;5066717;28;19935;-90
2024/02/11 01:28:33;;;;;;;;;;;;;;;;;;5057133;28;19944;-90
2024/02/11 01:30:59;;;;;;;;;;;;;;;;;;5052418;28;19908;-91
2024/02/11 01:33:25;;;;;;;;;;;;;;;;;;5057801;28;19916;-88
2024/02/11 01:35:51;;;;;;;;;;;;;;;;;;5073487;28;19912;-90
2024/02/11 01:38:17;;;;;;;;;;;;;;;;;;5057981;28;19915;-89
2024/02/11 01:40:43;;;;;;;;;;;;;;;;;;5073471;28;19967;-91
2024/02/11 01:43:09;;;;;;;;;;;;;;;;;;5074449;28;19919;-90
2024/02/11 01:45:35;;;;;;;;;;;;;;;;;;5051289;28;19916;-91
2024/02/11 01:48:01;;;;;;;;;;;;;;;;;;5063757;28;19909;-90
2024/02/11 01:50:31;;;;;;;;;;;;;;;;;;5068057;28;20382;-91
2024/02/11 01:52:58;;;;;;;;;;;;;;;;;;5075767;28;19908;-92
2024/02/11 01:55:23;;;;;;;;;;;;;;;;;;5071408;28;19919;-92
2024/02/11 01:57:49;;;;;;;;;;;;;;;;;;5067220;28;19908;-89
2024/02/11 02:00:15;;;;;;;;;;;;;;;;;;5066565;28;20290;-91
2024/02/11 02:02:41;;;;;;;;;;;;;;;;;;5073912;28;19951;-90
2024/02/11 02:05:07;;;;;;;;;;;;;;;;;;5063013;28;19918;-91
2024/02/11 02:07:36;;;;;;;;;;;;;;;;;;5072362;28;19946;-92
2024/02/11 02:10:03;;;;;;;;;;;;;;;;;;5077164;28;19913;-91
2024/02/11 02:12:29;;;;;;;;;;;;;;;;;;5061712;28;19948;-92
2024/02/11 02:14:55;;;;;;;;;;;;;;;;;;5073106;28;19913;-93
2024/02/11 02:17:21;;;;;;;;;;;;;;;;;;5079526;28;19915;-93
2024/02/11 02:19:47;;;;;;;;;;;;;;;;;;5084645;28;19916;-93
2024/02/11 02:22:13;;;;;;;;;;;;;;;;;;5067397;28;19913;-92
2024/02/11 02:24:39;;;;;;;;;;;;;;;;;;5064608;28;20402;-90
2024/02/11 02:27:08;;;;;;;;;;;;;;;;;;5076390;28;19950;-90
2024/02/11 02:29:33;;;;;;;;;;;;;;;;;;5051541;28;20131;-88
2024/02/11 02:31:59;;;;;;;;;;;;;;;;;;5069634;28;19920;-92
2024/02/11 02:34:25;;;;;;;;;;;;;;;;;;5070880;28;20128;-92
2024/02/11 02:36:51;;;;;;;;;;;;;;;;;;5063700;28;19904;-90
2024/02/11 02:39:17;;;;;;;;;;;;;;;;;;5064483;28;19963;-93
2024/02/11 02:41:43;;;;;;;;;;;;;;;;;;5049471;28;19929;-94
2024/02/11 02:44:15;;;;;;;;;;;;;;;;;;5062062;28;19940;-93
2024/02/11 02:46:41;;;;;;;;;;;;;;;;;;5074770;28;19917;-93
2024/02/11 02:49:09;;;;;;;;;;;;;;;;;;5077430;28;19893;-94
2024/02/11 02:51:35;;;;;;;;;;;;;;;;;;5088682;28;19970;-93
2024/02/11 02:54:09;;;;;;;;;;;;;;;;;;5088441;28;19916;-93
2024/02/11 02:56:39;;;;;;;;;;;;;;;;;;5090502;28;19913;-92
2024/02/11 02:59:08;;;;;;;;;;;;;;;;;;5076053;28;19916;-94
2024/02/11 03:01:34;;;;;;;;;;;;;;;;;;5075656;28;19913;-93
2024/02/11 03:04:00;;;;;;;;;;;;;;;;;;5085476;28;19919;-93
2024/02/11 03:06:26;;;;;;;;;;;;;;;;;;5071143;28;19936;-91
2024/02/11 03:08:52;;;;;;;;;;;;;;;;;;5083811;28;20413;-90
2024/02/11 03:11:18;;;;;;;;;;;;;;;;;;5081852;28;19962;-94
2024/02/11 03:13:44;;;;;;;;;;;;;;;;;;5059681;28;19924;-93
2024/02/11 03:16:10;;;;;;;;;;;;;;;;;;5054316;28;19909;-92
2024/02/11 03:18:36;;;;;;;;;;;;;;;;;;5066692;28;19917;-93
2024/02/11 03:21:02;;;;;;;;;;;;;;;;;;5073182;28;19913;-93
2024/02/11 03:23:28;;;;;;;;;;;;;;;;;;5078036;28;19946;-92
2024/02/11 03:25:57;;;;;;;;;;;;;;;;;;5069144;28;19920;-93
2024/02/11 03:28:23;;;;;;;;;;;;;;;;;;5081386;28;19912;-93
2024/02/11 03:30:49;;;;;;;;;;;;;;;;;;5082232;28;19923;-93
2024/02/11 03:33:15;;;;;;;;;;;;;;;;;;5078582;28;20360;-93
2024/02/11 03:35:41;;;;;;;;;;;;;;;;;;5080625;28;19917;-93
2024/02/11 03:38:07;;;;;;;;;;;;;;;;;;5074523;28;19913;-94
2024/02/11 03:40:33;;;;;;;;;;;;;;;;;;5079943;28;19908;-93
2024/02/11 03:42:59;;;;;;;;;;;;;;;;;;5065519;28;19971;-93
2024/02/11 03:45:25;;;;;;;;;;;;;;;;;;5080715;28;19921;-94
2024/02/11 03:47:51;;;;;;;;;;;;;;;;;;5060875;28;19913;-93
2024/02/11 03:50:19;;;;;;;;;;;;;;;;;;5071515;28;19913;-91
2024/02/11 03:52:45;;;;;;;;;;;;;;;;;;5070452;28;19913;-94
2024/02/11 03:55:11;;;;;;;;;;;;;;;;;;5043823;28;19913;-93
2024/02/11 03:57:40;;;;;;;;;;;;;;;;;;5045124;28;19956;-92
2024/02/11 04:00:10;;;;;;;;;;;;;;;;;;5077451;28;19913;-93
2024/02/11 04:02:38;;;;;;;;;;;;;;;;;;5074074;28;19916;-93
2024/02/11 04:05:04;;;;;;;;;;;;;;;;;;5077031;28;19912;-92
2024/02/11 04:07:31;;;;;;;;;;;;;;;;;;5127816;22;19928;-92
2024/02/11 04:10:02;;;;;;;;;;;;;;;;;;5099188;28;19912;-92
2024/02/11 04:12:30;;;;;;;;;;;;;;;;;;5109486;28;19912;-92
2024/02/11 04:14:58;;;;;;;;;;;;;;;;;;5105546;28;19912;-93
2024/02/11 04:17:24;;;;;;;;;;;;;;;;;;5101182;28;19916;-91
2024/02/11 04:19:52;;;;;;;;;;;;;;;;;;5105723;28;19992;-92
2024/02/11 04:22:20;;;;;;;;;;;;;;;;;;5099765;28;19957;-93
2024/02/11 04:24:46;;;;;;;;;;;;;;;;;;5110552;28;19912;-93
2024/02/11 04:27:14;;;;;;;;;;;;;;;;;;5104451;28;19900;-93
2024/02/11 04:29:40;;;;;;;;;;;;;;;;;;5108253;28;20002;-92
2024/02/11 04:32:07;;;;;;;;;;;;;;;;;;5104576;28;19911;-93
2024/02/11 04:34:34;;;;;;;;;;;;;;;;;;5093284;28;21248;-92
2024/02/11 04:37:01;;;;;;;;;;;;;;;;;;5100063;28;19912;-92
2024/02/11 04:39:27;;;;;;;;;;;;;;;;;;5102266;28;19912;-92
2024/02/11 04:41:54;;;;;;;;;;;;;;;;;;5095316;28;20264;-93
2024/02/11 04:44:23;;;;;;;;;;;;;;;;;;5096297;28;19957;-93
2024/02/11 04:46:50;;;;;;;;;;;;;;;;;;5075622;28;19920;-91
2024/02/11 04:49:16;;;;;;;;;;;;;;;;;;5096637;28;19927;-91
2024/02/11 04:51:42;;;;;;;;;;;;;;;;;;5085659;28;19912;-91
2024/02/11 04:54:08;;;;;;;;;;;;;;;;;;5086530;28;20278;-89
2024/02/11 04:56:35;;;;;;;;;;;;;;;;;;5084126;28;19920;-92
2024/02/11 04:59:03;;;;;;;;;;;;;;;;;;5093023;28;19918;-89
2024/02/11 05:01:29;;;;;;;;;;;;;;;;;;5090920;28;19916;-91
2024/02/11 05:03:55;;;;;;;;;;;;;;;;;;5089719;28;20026;-93
2024/02/11 05:06:23;;;;;;;;;;;;;;;;;;5103992;28;19954;-89
2024/02/11 05:08:49;;;;;;;;;;;;;;;;;;5095539;28;19922;-92
2024/02/11 05:11:15;;;;;;;;;;;;;;;;;;5089328;28;20346;-92
2024/02/11 05:13:43;;;;;;;;;;;;;;;;;;5097670;28;19912;-93
2024/02/11 05:16:09;;;;;;;;;;;;;;;;;;5093233;28;19917;-92
2024/02/11 05:18:38;;;;;;;;;;;;;;;;;;5095632;28;19919;-91
2024/02/11 05:21:04;;;;;;;;;;;;;;;;;;5099469;28;19976;-91
2024/02/11 05:23:30;;;;;;;;;;;;;;;;;;5103460;28;19965;-94
2024/02/11 05:25:58;;;;;;;;;;;;;;;;;;5102418;28;19985;-90
2024/02/11 05:28:23;;;;;;;;;;;;;;;;;;5090573;28;19919;-93
2024/02/11 05:30:50;;;;;;;;;;;;;;;;;;5087699;28;19912;-92
2024/02/11 05:33:16;;;;;;;;;;;;;;;;;;5112065;28;19912;-93
2024/02/11 05:35:43;;;;;;;;;;;;;;;;;;5096918;28;19969;-92
2024/02/11 05:38:09;;;;;;;;;;;;;;;;;;5076031;28;19971;-91
2024/02/11 05:40:35;;;;;;;;;;;;;;;;;;5093787;28;19919;-93
2024/02/11 05:43:01;;;;;;;;;;;;;;;;;;5097058;28;19920;-91
2024/02/11 05:45:26;;;;;;;;;;;;;;;;;;5105578;28;19916;-91
2024/02/11 05:47:52;;;;;;;;;;;;;;;;;;5092828;28;20266;-91
2024/02/11 05:50:19;;;;;;;;;;;;;;;;;;5076530;28;19973;-92
2024/02/11 05:52:45;;;;;;;;;;;;;;;;;;5094937;28;19916;-92
2024/02/11 05:55:15;;;;;;;;;;;;;;;;;;5076319;28;20287;-92
2024/02/11 05:57:41;;;;;;;;;;;;;;;;;;5076308;28;19916;-93
2024/02/11 06:00:11;;;;;;;;;;;;;;;;;;5094308;28;19916;-90
2024/02/11 06:02:37;;;;;;;;;;;;;;;;;;5093410;28;20406;-91
2024/02/11 06:05:06;;;;;;;;;;;;;;;;;;5095125;28;19912;-91
2024/02/11 06:07:33;;;;;;;;;;;;;;;;;;5094551;28;19916;-89
2024/02/11 06:09:58;;;;;;;;;;;;;;;;;;5082053;28;19919;-91
2024/02/11 06:12:26;;;;;;;;;;;;;;;;;;5094529;28;19908;-90
2024/02/11 06:14:52;;;;;;;;;;;;;;;;;;5093960;28;20380;-90
2024/02/11 06:17:17;;;;;;;;;;;;;;;;;;5094347;28;19998;-91
2024/02/11 06:19:43;;;;;;;;;;;;;;;;;;5095748;28;20568;-90
2024/02/11 06:22:09;;;;;;;;;;;;;;;;;;5092951;28;19912;-90
2024/02/11 06:24:35;;;;;;;;;;;;;;;;;;5094395;28;19916;-90
2024/02/11 06:27:01;;;;;;;;;;;;;;;;;;5094804;28;20250;-91
2024/02/11 06:29:27;;;;;;;;;;;;;;;;;;5092543;28;19908;-91
2024/02/11 06:31:53;;;;;;;;;;;;;;;;;;5095263;28;19909;-92
2024/02/11 06:34:20;;;;;;;;;;;;;;;;;;5095971;28;19919;-91
2024/02/11 06:36:48;;;;;;;;;;;;;;;;;;5094326;28;19909;-91
2024/02/11 06:39:14;;;;;;;;;;;;;;;;;;5093284;28;19935;-91
2024/02/11 06:41:41;;;;;;;;;;;;;;;;;;5076528;28;19952;-92
2024/02/11 06:44:07;;;;;;;;;;;;;;;;;;5094794;28;19908;-89
2024/02/11 06:46:33;;;;;;;;;;;;;;;;;;5095593;28;19912;-91
2024/02/11 06:49:01;;;;;;;;;;;;;;;;;;5088545;28;19908;-91
2024/02/11 06:51:31;;;;;;;;;;;;;;;;;;5078332;28;19908;-92
2024/02/11 06:53:56;;;;;;;;;;;;;;;;;;5096330;28;19951;-91
2024/02/11 06:56:25;;;;;;;;;;;;;;;;;;5094093;28;20374;-91
2024/02/11 06:58:51;;;;;;;;;;;;;;;;;;5098978;28;20480;-91
2024/02/11 07:01:18;;;;;;;;;;;;;;;;;;5079140;28;19961;-89
2024/02/11 07:03:46;;;;;;;;;;;;;;;;;;5102742;28;20441;-90
2024/02/11 07:06:13;;;;;;;;;;;;;;;;;;5082878;28;20404;-94
2024/02/11 07:08:39;;;;;;;;;;;;;;;;;;5104090;28;19941;-92
2024/02/11 07:11:08;;;;;;;;;;;;;;;;;;5104183;28;20003;-93
2024/02/11 07:13:33;;;;;;;;;;;;;;;;;;5105556;28;19916;-93
2024/02/11 07:15:59;;;;;;;;;;;;;;;;;;5078354;28;20031;-92
2024/02/11 07:18:25;;;;;;;;;;;;;;;;;;5100021;28;19912;-93
2024/02/11 07:20:51;;;;;;;;;;;;;;;;;;5081137;28;20287;-91
2024/02/11 07:23:18;;;;;;;;;;;;;;;;;;5108902;28;19953;-89
2024/02/11 07:25:45;;;;;;;;;;;;;;;;;;5096210;28;19924;-89
2024/02/11 07:28:11;;;;;;;;;;;;;;;;;;5096701;28;19943;-92
2024/02/11 07:30:37;;;;;;;;;;;;;;;;;;5095550;28;19973;-91
2024/02/11 07:33:03;;;;;;;;;;;;;;;;;;5108424;28;19982;-93
2024/02/11 07:35:29;;;;;;;;;;;;;;;;;;5097209;28;19940;-91
2024/02/11 07:37:55;;;;;;;;;;;;;;;;;;5095982;28;19975;-90
2024/02/11 07:40:21;;;;;;;;;;;;;;;;;;5095750;28;19912;-91
2024/02/11 07:42:47;;;;;;;;;;;;;;;;;;5079217;28;19908;-93
2024/02/11 07:45:14;;;;;;;;;;;;;;;;;;5080408;28;20613;-92
2024/02/11 07:47:40;;;;;;;;;;;;;;;;;;5089204;28;19916;-93
2024/02/11 07:50:14;;;;;;;;;;;;;;;;;;5096696;28;19915;-91
2024/02/11 07:52:43;;;;;;;;;;;;;;;;;;5097753;28;19919;-92
2024/02/11 07:55:09;;;;;;;;;;;;;;;;;;5097306;28;20441;-92
2024/02/11 07:57:35;;;;;;;;;;;;;;;;;;5097023;28;19912;-91
2024/02/11 08:00:01;;;;;;;;;;;;;;;;;;5108116;28;20025;-92
2024/02/11 08:02:26;;;;;;;;;;;;;;;;;;5097571;28;20002;-92
2024/02/11 08:04:52;;;;;;;;;;;;;;;;;;5097731;28;19912;-90
2024/02/11 08:07:18;;;;;;;;;;;;;;;;;;5089937;28;19915;-90
2024/02/11 08:09:44;;;;;;;;;;;;;;;;;;5101643;28;19912;-92
2024/02/11 08:12:10;;;;;;;;;;;;;;;;;;5099755;28;20413;-90
2024/02/11 08:14:40;;;;;;;;;;;;;;;;;;5104073;28;19943;-93
2024/02/11 08:17:06;;;;;;;;;;;;;;;;;;5105317;28;19975;-95
2024/02/11 08:19:32;;;;;;;;;;;;;;;;;;5100285;28;19974;-90
2024/02/11 08:22:00;;;;;;;;;;;;;;;;;;5098109;28;19908;-92
2024/02/11 08:24:26;;;;;;;;;;;;;;;;;;5097051;28;19919;-92
2024/02/11 08:26:52;;;;;;;;;;;;;;;;;;5097167;28;19923;-91
2024/02/11 08:29:19;;;;;;;;;;;;;;;;;;5078456;28;19912;-92
2024/02/11 08:31:46;;;;;;;;;;;;;;;;;;5089592;28;19920;-93
2024/02/11 08:34:11;;;;;;;;;;;;;;;;;;5096504;28;19908;-93
2024/02/11 08:36:37;;;;;;;;;;;;;;;;;;5102615;28;20398;-90
2024/02/11 08:39:03;;;;;;;;;;;;;;;;;;5077402;28;20349;-88
2024/02/11 08:41:29;;;;;;;;;;;;;;;;;;5093696;28;19966;-87
2024/02/11 08:43:55;;;;;;;;;;;;;;;;;;5092600;28;20003;-87
2024/02/11 08:46:21;;;;;;;;;;;;;;;;;;5097142;28;19978;-87
2024/02/11 08:48:49;;;;;;;;;;;;;;;;;;5093931;28;20385;-88
2024/02/11 08:51:20;;;;;;;;;;;;;;;;;;5093093;28;20380;-88
2024/02/11 08:53:46;;;;;;;;;;;;;;;;;;5091236;28;19912;-88
2024/02/11 08:56:12;;;;;;;;;;;;;;;;;;5094935;28;19923;-88
2024/02/11 08:58:38;;;;;;;;;;;;;;;;;;5076748;28;20336;-87
2024/02/11 09:01:05;;;;;;;;;;;;;;;;;;5093153;28;19923;-87
2024/02/11 09:03:32;;;;;;;;;;;;;;;;;;5092636;28;19908;-85
2024/02/11 09:05:59;;;;;;;;;;;;;;;;;;5100435;28;19989;-87
2024/02/11 09:08:25;;;;;;;;;;;;;;;;;;5090182;28;20003;-88
2024/02/11 09:10:51;;;;;;;;;;;;;;;;;;5097438;28;19920;-89
2024/02/11 09:13:17;;;;;;;;;;;;;;;;;;5086992;28;19958;-88
2024/02/11 09:15:44;;;;;;;;;;;;;;;;;;5096047;28;19916;-87
2024/02/11 09:18:13;;;;;;;;;;;;;;;;;;5089763;28;19944;-86
2024/02/11 09:20:39;;;;;;;;;;;;;;;;;;5086566;28;19908;-91
2024/02/11 09:23:05;;;;;;;;;;;;;;;;;;5092118;28;20474;-92
2024/02/11 09:25:32;;;;;;;;;;;;;;;;;;5094373;28;19910;-89
2024/02/11 09:27:58;;;;;;;;;;;;;;;;;;5094305;28;19912;-89
2024/02/11 09:30:24;;;;;;;;;;;;;;;;;;5084452;28;19943;-86
2024/02/11 09:32:50;;;;;;;;;;;;;;;;;;5096671;28;20367;-90
2024/02/11 09:35:21;;;;;;;;;;;;;;;;;;5093671;28;19934;-91
2024/02/11 09:37:46;;;;;;;;;;;;;;;;;;5086074;28;19913;-90
2024/02/11 09:40:13;;;;;;;;;;;;;;;;;;5092278;28;19923;-90
2024/02/11 09:42:39;;;;;;;;;;;;;;;;;;5098068;28;19912;-91
2024/02/11 09:45:05;;;;;;;;;;;;;;;;;;5100331;28;19989;-93
2024/02/11 09:47:32;;;;;;;;;;;;;;;;;;5094593;28;19916;-93
2024/02/11 09:50:00;;;;;;;;;;;;;;;;;;5094692;28;20056;-92
2024/02/11 09:52:26;;;;;;;;;;;;;;;;;;5090991;28;19944;-90
2024/02/11 09:54:53;;;;;;;;;;;;;;;;;;5088236;28;19908;-90
2024/02/11 09:57:19;;;;;;;;;;;;;;;;;;5103069;28;19946;-89
2024/02/11 09:59:47;;;;;;;;;;;;;;;;;;5101005;28;19912;-92
2024/02/11 10:02:13;;;;;;;;;;;;;;;;;;5088077;28;19930;-90
2024/02/11 10:04:39;;;;;;;;;;;;;;;;;;5079323;28;19908;-93
2024/02/11 10:07:08;;;;;;;;;;;;;;;;;;5100838;28;19916;-90
2024/02/11 10:09:34;;;;;;;;;;;;;;;;;;5102056;28;19916;-90
2024/02/11 10:12:00;;;;;;;;;;;;;;;;;;5081703;28;19917;-92
2024/02/11 10:14:29;;;;;;;;;;;;;;;;;;5101700;28;19989;-90
2024/02/11 10:16:55;;;;;;;;;;;;;;;;;;5101302;28;19919;-88
2024/02/11 10:19:22;;;;;;;;;;;;;;;;;;5103287;28;19909;-91
2024/02/11 10:21:48;;;;;;;;;;;;;;;;;;5087840;28;19913;-90
2024/02/11 10:24:16;;;;;;;;;;;;;;;;;;5088591;28;20496;-88
2024/02/11 10:26:43;;;;;;;;;;;;;;;;;;5085924;28;20030;-89
2024/02/11 10:29:09;;;;;;;;;;;;;;;;;;5092400;28;20320;-88
2024/02/11 10:31:35;;;;;;;;;;;;;;;;;;5087463;28;19920;-87
2024/02/11 10:34:01;;;;;;;;;;;;;;;;;;5082356;28;19912;-89
2024/02/11 10:36:30;;;;;;;;;;;;;;;;;;5095744;28;19964;-89
2024/02/11 10:38:56;;;;;;;;;;;;;;;;;;5097580;28;19912;-93
2024/02/11 10:41:22;;;;;;;;;;;;;;;;;;5105648;28;19913;-92
2024/02/11 10:43:48;;;;;;;;;;;;;;;;;;5101738;28;20230;-89
2024/02/11 10:46:14;;;;;;;;;;;;;;;;;;5091217;28;19920;-94
2024/02/11 10:48:40;;;;;;;;;;;;;;;;;;5082031;28;19908;-92
2024/02/11 10:51:06;;;;;;;;;;;;;;;;;;5086096;28;19920;-92
2024/02/11 10:53:32;;;;;;;;;;;;;;;;;;5084749;28;20005;-91
2024/02/11 10:55:58;;;;;;;;;;;;;;;;;;5074759;28;19967;-91
2024/02/11 10:58:24;;;;;;;;;;;;;;;;;;5093561;28;19955;-90
2024/02/11 11:00:51;;;;;;;;;;;;;;;;;;5083620;28;20519;-91
2024/02/11 11:03:36;;;;;;;;;;;;;;;;;;5091366;28;19912;-92
2024/02/11 11:06:12;;;;;;;;;;;;;;;;;;;;;
2024/02/11 11:08:44;;;;;;;;;;;;;;;;;;5048405;28;19976;-90
2024/02/11 11:11:12;;;;;;;;;;;;;;;;;;5062698;28;19917;-93
2024/02/11 11:13:39;;;;;;;;;;;;;;;;;;5069219;28;19897;-92
2024/02/11 11:16:05;;;;;;;;;;;;;;;;;;5062437;28;19913;-88
2024/02/11 11:18:31;;;;;;;;;;;;;;;;;;5050819;28;19966;-89
2024/02/11 11:23:32;;;;;;;;;;;;;;;;;;5441793;22;20305;-87
2024/02/11 11:25:58;;;;;;;;;;;;;;;;;;5113456;28;19919;-87
2024/02/11 11:28:26;;;;;;;;;;;;;;;;;;5111347;28;21198;-87
2024/02/11 11:30:52;;;;;;;;;;;;;;;;;;5125985;27;20049;-87
2024/02/11 11:33:18;;;;;;;;;;;;;;;;;;5109028;28;19923;-88
2024/02/11 11:35:44;;;;;;;;;;;;;;;;;;5097728;27;19919;-86
2024/02/11 11:38:10;;;;;;;;;;;;;;;;;;5113888;28;19920;-89
2024/02/11 11:40:36;;;;;;;;;;;;;;;;;;5107616;28;19947;-87
2024/02/11 11:43:02;;;;;;;;;;;;;;;;;;5112202;28;20433;-87
2024/02/11 11:45:28;;;;;;;;;;;;;;;;;;5109843;28;19920;-88
2024/02/11 11:47:55;;;;;;;;;;;;;;;;;;5112436;28;19912;-88
2024/02/11 11:50:22;;;;;;;;;;;;;;;;;;5111074;28;19919;-87
2024/02/11 11:52:48;;;;;;;;;;;;;;;;;;5109661;28;19912;-86
2024/02/11 11:55:14;;;;;;;;;;;;;;;;;;5103770;28;19912;-86
2024/02/11 11:57:39;;;;;;;;;;;;;;;;;;5105377;28;19933;-85
2024/02/11 12:00:07;;;;;;;;;;;;;;;;;;5106565;28;19919;-84
2024/02/11 12:02:35;;;;;;;;;;;;;;;;;;5107039;27;19963;-92
2024/02/11 12:05:09;;;;;;;;;;;;;;;;;;5114407;28;19979;-89
2024/02/11 12:07:34;;;;;;;;;;;;;;;;;;5100044;28;19920;-90
2024/02/11 12:10:00;;;;;;;;;;;;;;;;;;5110635;28;19919;-90
2024/02/11 12:12:27;;;;;;;;;;;;;;;;;;5114205;28;19911;-89
2024/02/11 12:14:52;;;;;;;;;;;;;;;;;;5112437;28;19996;-88
2024/02/11 12:17:18;;;;;;;;;;;;;;;;;;5109361;28;20407;-90
2024/02/11 12:19:45;;;;;;;;;;;;;;;;;;5105687;28;19920;-88
2024/02/11 12:22:11;;;;;;;;;;;;;;;;;;5100529;28;20600;-87
2024/02/11 12:24:38;;;;;;;;;;;;;;;;;;5112417;28;19920;-89
2024/02/11 12:27:04;;;;;;;;;;;;;;;;;;5110216;28;20392;-89
2024/02/11 12:29:31;;;;;;;;;;;;;;;;;;5101412;27;19908;-92
2024/02/11 12:32:00;;;;;;;;;;;;;;;;;;5124906;28;19908;-89
2024/02/11 12:34:29;;;;;;;;;;;;;;;;;;5124723;27;19981;-92
2024/02/11 12:36:55;;;;;;;;;;;;;;;;;;5260619;22;19923;-92
2024/02/11 12:39:20;;;;;;;;;;;;;;;;;;5099474;28;19918;-91
2024/02/11 12:41:46;;;;;;;;;;;;;;;;;;5096992;28;20420;-92
2024/02/11 12:44:13;;;;;;;;;;;;;;;;;;5101690;28;19922;-93
2024/02/11 12:46:39;;;;;;;;;;;;;;;;;;5097875;28;19915;-92
2024/02/11 12:49:05;;;;;;;;;;;;;;;;;;5095788;28;19963;-91
2024/02/11 12:51:31;;;;;;;;;;;;;;;;;;5109873;28;20386;-90
2024/02/11 12:53:57;;;;;;;;;;;;;;;;;;5109229;28;19912;-91
2024/02/11 12:56:23;;;;;;;;;;;;;;;;;;5095544;28;19998;-91
2024/02/11 12:58:49;;;;;;;;;;;;;;;;;;5096512;28;19924;-91
2024/02/11 13:01:15;;;;;;;;;;;;;;;;;;5095859;28;20413;-92
2024/02/11 13:03:40;;;;;;;;;;;;;;;;;;5086245;28;19981;-91
2024/02/11 13:06:06;;;;;;;;;;;;;;;;;;5094991;28;19915;-91
2024/02/11 13:08:32;;;;;;;;;;;;;;;;;;5094826;28;20333;-91
2024/02/11 13:10:59;;;;;;;;;;;;;;;;;;5096038;28;19915;-90
2024/02/11 13:13:25;;;;;;;;;;;;;;;;;;5092862;28;20511;-90
2024/02/11 13:15:51;;;;;;;;;;;;;;;;;;5077732;28;20371;-89
2024/02/11 13:18:18;;;;;;;;;;;;;;;;;;5095987;28;20408;-91
2024/02/11 13:20:45;;;;;;;;;;;;;;;;;;5090796;28;19916;-89
2024/02/11 13:23:11;;;;;;;;;;;;;;;;;;5096398;28;20424;-90
2024/02/11 13:25:37;;;;;;;;;;;;;;;;;;5090085;28;19912;-88
2024/02/11 13:28:03;;;;;;;;;;;;;;;;;;5061988;28;19943;-88
2024/02/11 13:30:30;;;;;;;;;;;;;;;;;;5057188;28;19917;-88
2024/02/11 13:32:56;;;;;;;;;;;;;;;;;;5090096;28;19919;-88
2024/02/11 13:35:22;;;;;;;;;;;;;;;;;;5081514;28;19912;-89
2024/02/11 13:37:48;;;;;;;;;;;;;;;;;;5077201;28;19924;-92
2024/02/11 13:40:15;;;;;;;;;;;;;;;;;;5078320;28;19913;-90
2024/02/11 13:42:41;;;;;;;;;;;;;;;;;;5079641;28;19919;-90
2024/02/11 13:45:13;;;;;;;;;;;;;;;;;;5077778;28;20297;-89
2024/02/11 13:47:40;;;;;;;;;;;;;;;;;;5073716;28;19952;-89
2024/02/11 13:50:06;;;;;;;;;;;;;;;;;;5071981;28;19913;-90
2024/02/11 13:52:33;;;;;;;;;;;;;;;;;;5075439;28;19913;-89
2024/02/11 13:54:59;;;;;;;;;;;;;;;;;;5082814;28;19912;-91
2024/02/11 13:57:25;;;;;;;;;;;;;;;;;;5087835;28;19934;-90
2024/02/11 13:59:52;;;;;;;;;;;;;;;;;;5101349;28;20351;-91
2024/02/11 14:02:18;;;;;;;;;;;;;;;;;;5090507;28;19934;-90
2024/02/11 14:04:44;;;;;;;;;;;;;;;;;;5095501;28;20414;-91
2024/02/11 14:07:10;;;;;;;;;;;;;;;;;;5098648;28;19916;-89
2024/02/11 14:09:40;;;;;;;;;;;;;;;;;;5096106;28;20386;-89
2024/02/11 14:12:08;;;;;;;;;;;;;;;;;;5079747;28;19967;-90
2024/02/11 14:14:36;;;;;;;;;;;;;;;;;;5094083;28;19915;-90
2024/02/11 14:17:03;;;;;;;;;;;;;;;;;;5092675;28;19920;-89
2024/02/11 14:19:30;;;;;;;;;;;;;;;;;;5089588;28;19970;-89
2024/02/11 14:21:56;;;;;;;;;;;;;;;;;;5074520;28;19916;-87
2024/02/11 14:24:22;;;;;;;;;;;;;;;;;;5082082;28;20382;-90
2024/02/11 14:26:49;;;;;;;;;;;;;;;;;;5088762;28;19916;-90
2024/02/11 14:29:15;;;;;;;;;;;;;;;;;;5093819;28;20049;-91
2024/02/11 14:31:41;;;;;;;;;;;;;;;;;;5078117;28;20018;-91
2024/02/11 14:34:08;;;;;;;;;;;;;;;;;;5098206;28;19919;-92
2024/02/11 14:36:34;;;;;;;;;;;;;;;;;;5094150;28;19994;-88
2024/02/11 14:39:00;;;;;;;;;;;;;;;;;;5089153;28;19926;-93
2024/02/11 14:41:26;;;;;;;;;;;;;;;;;;5091941;28;19912;-88
2024/02/11 14:43:52;;;;;;;;;;;;;;;;;;5082686;28;19912;-89
2024/02/11 14:46:20;;;;;;;;;;;;;;;;;;5085785;28;19923;-86
2024/02/11 14:48:46;;;;;;;;;;;;;;;;;;5086417;28;19912;-91
2024/02/11 14:51:12;;;;;;;;;;;;;;;;;;5085239;28;19921;-88
2024/02/11 14:53:38;;;;;;;;;;;;;;;;;;5091603;28;19912;-88
2024/02/11 14:56:05;;;;;;;;;;;;;;;;;;5090368;28;21760;-86
2024/02/11 14:58:31;;;;;;;;;;;;;;;;;;5082213;28;19913;-87
2024/02/11 15:00:57;;;;;;;;;;;;;;;;;;5084645;28;19944;-85
2024/02/11 15:03:24;;;;;;;;;;;;;;;;;;5081820;28;19947;-87
2024/02/11 15:05:50;;;;;;;;;;;;;;;;;;5085462;28;19916;-90
2024/02/11 15:08:16;;;;;;;;;;;;;;;;;;5089046;28;19912;-88
2024/02/11 15:10:43;;;;;;;;;;;;;;;;;;5091167;28;19912;-90
2024/02/11 15:13:08;;;;;;;;;;;;;;;;;;5098146;28;19955;-89
2024/02/11 15:15:36;;;;;;;;;;;;;;;;;;5095632;28;19947;-89
2024/02/11 15:18:02;;;;;;;;;;;;;;;;;;5090973;28;19912;-89
2024/02/11 15:20:28;;;;;;;;;;;;;;;;;;5098224;28;19951;-90
2024/02/11 15:22:54;;;;;;;;;;;;;;;;;;5092132;28;19919;-88
2024/02/11 15:25:20;;;;;;;;;;;;;;;;;;5091090;28;19920;-88
2024/02/11 15:27:46;;;;;;;;;;;;;;;;;;5074204;28;19915;-89
2024/02/11 15:30:14;;;;;;;;;;;;;;;;;;5088936;28;19964;-89
2024/02/11 15:32:40;;;;;;;;;;;;;;;;;;5099149;28;19911;-91
2024/02/11 15:35:05;;;;;;;;;;;;;;;;;;5092523;28;20354;-90
2024/02/11 15:37:32;;;;;;;;;;;;;;;;;;5094571;28;20064;-95
2024/02/11 15:39:58;;;;;;;;;;;;;;;;;;5084582;28;19916;-90
2024/02/11 15:42:25;;;;;;;;;;;;;;;;;;5077649;28;19916;-93
2024/02/11 15:44:51;;;;;;;;;;;;;;;;;;5093160;28;19924;-92
2024/02/11 15:47:18;;;;;;;;;;;;;;;;;;5072475;28;20202;-91
2024/02/11 15:49:44;;;;;;;;;;;;;;;;;;5098672;28;19946;-90
2024/02/11 15:52:10;;;;;;;;;;;;;;;;;;5091967;28;19912;-88
2024/02/11 15:54:36;;;;;;;;;;;;;;;;;;5092760;28;19923;-88
2024/02/11 15:57:02;;;;;;;;;;;;;;;;;;5077219;28;19916;-88
2024/02/11 15:59:28;;;;;;;;;;;;;;;;;;5082477;28;19916;-88
2024/02/11 16:01:54;;;;;;;;;;;;;;;;;;5081287;28;19916;-88
2024/02/11 16:04:20;;;;;;;;;;;;;;;;;;5079029;28;19999;-89
2024/02/11 16:06:47;;;;;;;;;;;;;;;;;;5086042;28;20634;-88
2024/02/11 16:09:13;;;;;;;;;;;;;;;;;;5086090;28;19942;-87
2024/02/11 16:11:40;;;;;;;;;;;;;;;;;;5078964;28;20368;-87
2024/02/11 16:14:07;;;;;;;;;;;;;;;;;;5087145;28;19954;-89
2024/02/11 16:16:33;;;;;;;;;;;;;;;;;;5082190;28;19935;-89
2024/02/11 16:18:59;;;;;;;;;;;;;;;;;;5078371;28;19981;-89
2024/02/11 16:21:25;;;;;;;;;;;;;;;;;;5083017;28;20442;-89
2024/02/11 16:23:51;;;;;;;;;;;;;;;;;;5083611;28;19916;-88
2024/02/11 16:26:17;;;;;;;;;;;;;;;;;;5083484;28;19963;-87
2024/02/11 16:28:43;;;;;;;;;;;;;;;;;;5088088;28;19919;-88
2024/02/11 16:31:12;;;;;;;;;;;;;;;;;;5087684;28;19924;-87
2024/02/11 16:33:38;;;;;;;;;;;;;;;;;;5083878;28;19912;-87
2024/02/11 16:36:03;;;;;;;;;;;;;;;;;;5080669;28;19922;-88
2024/02/11 16:38:30;;;;;;;;;;;;;;;;;;5084862;28;19916;-88
2024/02/11 16:40:56;;;;;;;;;;;;;;;;;;5078817;28;20462;-87
2024/02/11 16:43:22;;;;;;;;;;;;;;;;;;5076465;28;19921;-87